Time;durP1;ratioP1;P1;durP2;ratioP2;P2;SDS_P1;SDS_P2;PMS_P1;PMS_P2;Temp;Humidity;BMP_temperature;BMP_pressure;BME280_temperature;BME280_humidity;BME280_pressure;Samples;Min_cycle;Max_cycle;Signal;HPM_P1;HPM_P2
2023/04/10 00:00:44;;;;;;;10.33;8.50;;;;;;;-150.27;100.00;61272.81;5032957;29;20044;-71
2023/04/10 00:03:16;;;;;;;9.40;8.23;;;;;;;-150.27;100.00;61272.81;5033992;29;20026;-71
2023/04/10 00:05:47;;;;;;;10.73;8.83;;;;;;;-150.27;100.00;61272.81;5034952;29;20030;-71
2023/04/10 00:08:21;;;;;;;9.23;8.23;;;;;;;-150.27;100.00;61272.81;5032726;29;20060;-69
2023/04/10 00:10:53;;;;;;;9.93;7.72;;;;;;;-150.27;100.00;61272.81;5034562;29;20520;-71
2023/04/10 00:13:25;;;;;;;10.13;8.07;;;;;;;-150.27;100.00;61272.81;5034328;29;20057;-71
2023/04/10 00:15:57;;;;;;;8.63;7.73;;;;;;;-150.27;100.00;61272.81;5035883;29;20041;-69
2023/04/10 00:18:28;;;;;;;8.00;7.03;;;;;;;-150.27;100.00;61272.81;5026291;29;20030;-71
2023/04/10 00:21:01;;;;;;;8.37;7.40;;;;;;;-150.27;100.00;61272.81;5036538;29;20494;-71
2023/04/10 00:23:33;;;;;;;9.53;7.67;;;;;;;-150.27;100.00;61272.81;5038287;29;20389;-71
2023/04/10 00:26:05;;;;;;;9.53;8.13;;;;;;;-150.27;100.00;61272.81;5037807;29;20026;-72
2023/04/10 00:28:37;;;;;;;8.87;7.20;;;;;;;-150.27;100.00;61272.81;5028532;29;20085;-70
2023/04/10 00:31:08;;;;;;;10.27;7.37;;;;;;;-150.27;100.00;61272.81;5036810;29;20797;-70
2023/04/10 00:33:39;;;;;;;8.20;7.10;;;;;;;-150.27;100.00;61272.81;5036687;29;20071;-70
2023/04/10 00:36:11;;;;;;;12.03;7.43;;;;;;;-150.27;100.00;61272.81;5037203;29;20030;-70
2023/04/10 00:38:42;;;;;;;9.90;7.77;;;;;;;-150.27;100.00;61272.81;5037753;29;20033;-70
2023/04/10 00:41:13;;;;;;;9.07;7.37;;;;;;;-150.27;100.00;61272.81;5037264;29;20029;-70
2023/04/10 00:43:45;;;;;;;10.40;7.23;;;;;;;-150.27;100.00;61272.81;5037865;29;20485;-70
2023/04/10 00:46:16;;;;;;;9.33;6.73;;;;;;;-150.27;100.00;61272.81;5020764;29;20615;-69
2023/04/10 00:48:48;;;;;;;8.57;7.20;;;;;;;-150.27;100.00;61272.81;5037985;29;20497;-70
2023/04/10 00:51:20;;;;;;;8.27;6.73;;;;;;;-150.27;100.00;61272.81;5018729;29;20034;-70
2023/04/10 00:53:53;;;;;;;8.30;7.40;;;;;;;-150.27;100.00;61272.81;5030293;29;20439;-70
2023/04/10 00:56:24;;;;;;;8.73;7.00;;;;;;;-150.27;100.00;61272.81;5007451;29;20048;-69
2023/04/10 00:58:56;;;;;;;8.37;7.40;;;;;;;-150.27;100.00;61272.81;5037345;29;20030;-70
2023/04/10 01:01:27;;;;;;;10.63;7.57;;;;;;;-150.27;100.00;61272.81;5036383;29;20122;-70
2023/04/10 01:03:59;;;;;;;10.67;6.90;;;;;;;-150.27;100.00;61272.81;5029369;29;20033;-71
2023/04/10 01:06:52;;;;;;;9.37;7.37;;;;;;;-150.27;100.00;61272.81;5034812;29;20026;-70
2023/04/10 01:09:45;;;;;;;8.27;7.00;;;;;;;-150.27;100.00;61272.81;5027629;29;20038;-70
2023/04/10 01:12:31;;;;;;;8.40;6.97;;;;;;;-150.27;100.00;61272.81;5030894;29;20034;-70
2023/04/10 01:15:16;;;;;;;9.33;7.30;;;;;;;-150.27;100.00;61272.81;5031033;29;20488;-70
2023/04/10 01:18:09;;;;;;;8.68;7.78;;;;;;;-150.27;100.00;61272.81;5037603;29;20045;-70
2023/04/10 01:20:41;;;;;;;12.27;7.67;;;;;;;-150.27;100.00;61272.81;5031318;29;20049;-70
2023/04/10 01:23:46;;;;;;;7.67;6.87;;;;;;;-150.27;100.00;61272.81;5036372;29;20105;-71
2023/04/10 01:26:31;;;;;;;8.23;6.63;;;;;;;-150.27;100.00;61272.81;5035569;29;20125;-70
2023/04/10 01:29:07;;;;;;;7.93;6.97;;;;;;;-150.27;100.00;61272.81;5018183;29;20482;-70
2023/04/10 01:31:50;;;;;;;9.87;7.33;;;;;;;-150.27;100.00;61272.81;5036882;29;20042;-70
2023/04/10 01:34:26;;;;;;;8.37;7.40;;;;;;;-150.27;100.00;61272.81;5034105;29;20033;-70
2023/04/10 01:37:03;;;;;;;9.53;7.27;;;;;;;-150.27;100.00;61272.81;5024238;29;20049;-70
2023/04/10 01:39:38;;;;;;;11.97;8.50;;;;;;;-150.27;100.00;61272.81;5037223;29;20049;-70
2023/04/10 01:42:13;;;;;;;13.60;7.80;;;;;;;-150.27;100.00;61272.81;5036668;29;20196;-70
2023/04/10 01:44:45;;;;;;;;;;;;;;;-150.27;100.00;61272.81;5019846;29;20066;-70
2023/04/10 01:47:18;;;;;;;10.77;7.97;;;;;;;-150.27;100.00;61272.81;5036724;29;19921;-71
2023/04/10 01:49:50;;;;;;;8.47;7.57;;;;;;;-150.27;100.00;61272.81;5036981;29;20037;-70
2023/04/10 01:52:23;;;;;;;10.07;7.30;;;;;;;-150.27;100.00;61272.81;5036617;29;20096;-71
2023/04/10 01:54:56;;;;;;;9.67;8.07;;;;;;;-150.27;100.00;61272.81;5034029;29;20034;-70
2023/04/10 01:57:30;;;;;;;12.50;8.33;;;;;;;-150.27;100.00;61272.81;5026915;29;20061;-71
2023/04/10 02:00:03;;;;;;;7.93;7.13;;;;;;;-150.27;100.00;61272.81;5035169;29;20109;-71
2023/04/10 02:02:34;;;;;;;10.37;7.53;;;;;;;-150.27;100.00;61272.81;5037251;29;20026;-71
2023/04/10 02:05:05;;;;;;;8.27;7.10;;;;;;;-150.27;100.00;61272.81;5035518;29;20037;-70
2023/04/10 02:07:49;;;;;;;8.83;7.93;;;;;;;-150.27;100.00;61272.81;5036748;29;20045;-71
2023/04/10 02:10:30;;;;;;;8.50;7.17;;;;;;;-150.27;100.00;61272.81;5035615;29;20030;-71
2023/04/10 02:13:10;;;;;;;9.63;7.23;;;;;;;-150.27;100.00;61272.81;5035857;29;20050;-69
2023/04/10 02:15:45;;;;;;;7.90;6.87;;;;;;;-150.27;100.00;61272.81;5035003;29;20030;-70
2023/04/10 02:18:18;;;;;;;9.30;7.57;;;;;;;-150.27;100.00;61272.81;5034907;29;20145;-71
2023/04/10 02:20:49;;;;;;;8.53;7.23;;;;;;;-150.27;100.00;61272.81;5036382;29;20091;-71
2023/04/10 02:23:21;;;;;;;8.50;7.33;;;;;;;-150.27;100.00;61272.81;5035602;29;20046;-71
2023/04/10 02:25:55;;;;;;;8.77;7.10;;;;;;;-150.27;100.00;61272.81;5035392;29;20150;-69
2023/04/10 02:28:26;;;;;;;9.03;7.40;;;;;;;-150.27;100.00;61272.81;5018425;29;20054;-69
2023/04/10 02:30:57;;;;;;;8.23;7.03;;;;;;;-150.27;100.00;61272.81;5034943;29;20037;-71
2023/04/10 02:33:29;;;;;;;10.03;7.23;;;;;;;-150.27;100.00;61272.81;5036062;29;20049;-71
2023/04/10 02:36:00;;;;;;;8.47;6.90;;;;;;;-150.27;100.00;61272.81;5034751;29;20038;-71
2023/04/10 02:38:32;;;;;;;7.53;6.13;;;;;;;-150.27;100.00;61272.81;5035902;29;20032;-71
2023/04/10 02:41:03;;;;;;;9.43;7.50;;;;;;;-150.27;100.00;61272.81;5031259;29;20477;-70
2023/04/10 02:43:34;;;;;;;8.60;7.20;;;;;;;-150.27;100.00;61272.81;5035321;29;20041;-71
2023/04/10 02:46:06;;;;;;;8.57;7.53;;;;;;;-150.27;100.00;61272.81;5034327;29;20500;-70
2023/04/10 02:48:37;;;;;;;7.33;6.07;;;;;;;-150.27;100.00;61272.81;5034346;29;20038;-72
2023/04/10 02:51:08;;;;;;;8.03;6.87;;;;;;;-150.27;100.00;61272.81;5032534;29;20426;-70
2023/04/10 02:53:40;;;;;;;7.93;6.67;;;;;;;-150.27;100.00;61272.81;5025245;29;20037;-71
2023/04/10 02:56:11;;;;;;;9.47;6.70;;;;;;;-150.27;100.00;61272.81;5034357;29;20703;-71
2023/04/10 02:58:45;;;;;;;7.43;6.17;;;;;;;-150.27;100.00;61272.81;5035381;29;20497;-72
2023/04/10 03:01:16;;;;;;;7.57;6.80;;;;;;;-150.27;100.00;61272.81;5033952;29;20383;-70
2023/04/10 03:03:47;;;;;;;8.27;6.63;;;;;;;-150.27;100.00;61272.81;5033850;29;20295;-70
2023/04/10 03:06:19;;;;;;;10.00;7.53;;;;;;;-150.27;100.00;61272.81;5033678;29;20090;-70
2023/04/10 03:08:51;;;;;;;8.50;7.23;;;;;;;-150.27;100.00;61272.81;5034089;29;20133;-71
2023/04/10 03:11:22;;;;;;;8.70;7.23;;;;;;;-150.27;100.00;61272.81;5035154;29;20780;-69
2023/04/10 03:13:53;;;;;;;8.30;6.70;;;;;;;-150.27;100.00;61272.81;5034502;29;20065;-70
2023/04/10 03:16:25;;;;;;;7.87;7.00;;;;;;;-150.27;100.00;61272.81;5034398;29;20034;-71
2023/04/10 03:18:56;;;;;;;8.47;6.87;;;;;;;-150.27;100.00;61272.81;5034136;29;20041;-70
2023/04/10 03:21:27;;;;;;;10.30;7.50;;;;;;;-150.27;100.00;61272.81;5035549;29;20033;-70
2023/04/10 03:23:59;;;;;;;9.07;7.57;;;;;;;-150.27;100.00;61272.81;5034574;29;20028;-71
2023/04/10 03:26:31;;;;;;;10.30;7.43;;;;;;;-150.27;100.00;61272.81;5035790;29;20038;-71
2023/04/10 03:29:02;;;;;;;8.20;7.00;;;;;;;-150.27;100.00;61272.81;5034110;29;20033;-71
2023/04/10 03:31:33;;;;;;;10.57;7.40;;;;;;;-150.27;100.00;61272.81;5034412;29;20116;-69
2023/04/10 03:34:05;;;;;;;8.10;6.73;;;;;;;-150.27;100.00;61272.81;5034886;29;20034;-69
2023/04/10 03:36:36;;;;;;;8.23;7.00;;;;;;;-150.27;100.00;61272.81;5035451;29;20030;-72
2023/04/10 03:39:07;;;;;;;9.73;7.03;;;;;;;-150.27;100.00;61272.81;5034746;29;20742;-71
2023/04/10 03:41:39;;;;;;;10.97;6.73;;;;;;;-150.27;100.00;61272.81;5035847;29;20458;-71
2023/04/10 03:44:10;;;;;;;9.00;7.67;;;;;;;-150.27;100.00;61272.81;5033363;29;20402;-71
2023/04/10 03:46:41;;;;;;;7.93;6.90;;;;;;;-150.27;100.00;61272.81;5035304;29;20061;-71
2023/04/10 03:49:12;;;;;;;10.27;7.53;;;;;;;-150.27;100.00;61272.81;5036813;29;20037;-71
2023/04/10 03:51:44;;;;;;;9.00;7.17;;;;;;;-150.27;100.00;61272.81;5039170;29;20054;-71
2023/04/10 03:54:15;;;;;;;8.90;7.33;;;;;;;-150.27;100.00;61272.81;5038632;29;20515;-70
2023/04/10 03:56:46;;;;;;;10.17;7.90;;;;;;;-150.27;100.00;61272.81;5039285;29;20692;-71
2023/04/10 03:59:18;;;;;;;10.33;7.90;;;;;;;-150.27;100.00;61272.81;5037613;29;20086;-71
2023/04/10 04:01:49;;;;;;;9.70;8.07;;;;;;;-150.27;100.00;61272.81;5032244;29;20036;-71
2023/04/10 04:04:21;;;;;;;9.43;7.40;;;;;;;-150.27;100.00;61272.81;5040864;29;20029;-71
2023/04/10 04:06:52;;;;;;;9.53;7.87;;;;;;;-150.27;100.00;61272.81;5038360;29;20112;-71
2023/04/10 04:09:23;;;;;;;8.60;7.20;;;;;;;-150.27;100.00;61272.81;5022806;29;20481;-71
2023/04/10 04:11:55;;;;;;;9.43;8.20;;;;;;;-150.27;100.00;61272.81;5029660;29;20028;-69
2023/04/10 04:14:26;;;;;;;8.80;7.90;;;;;;;-150.27;100.00;61272.81;5035818;29;20118;-69
2023/04/10 04:16:57;;;;;;;9.93;8.07;;;;;;;-150.27;100.00;61272.81;5021794;29;20813;-72
2023/04/10 04:19:29;;;;;;;9.13;8.03;;;;;;;-150.27;100.00;61272.81;5022002;29;20038;-71
2023/04/10 04:22:01;;;;;;;9.97;8.17;;;;;;;-150.27;100.00;61272.81;5026934;29;20098;-71
2023/04/10 04:24:32;;;;;;;11.57;9.00;;;;;;;-150.27;100.00;61272.81;5038920;29;20850;-71
2023/04/10 04:27:03;;;;;;;11.67;9.50;;;;;;;-150.27;100.00;61272.81;5037972;29;20045;-72
2023/04/10 04:29:34;;;;;;;10.23;7.90;;;;;;;-150.27;100.00;61272.81;5037652;29;20073;-71
2023/04/10 04:32:05;;;;;;;10.47;8.87;;;;;;;-150.27;100.00;61272.81;5037955;29;20030;-71
2023/04/10 04:34:37;;;;;;;9.70;8.43;;;;;;;-150.27;100.00;61272.81;5031446;29;20164;-71
2023/04/10 04:37:08;;;;;;;9.40;8.40;;;;;;;-150.27;100.00;61272.81;5034599;29;20042;-71
2023/04/10 04:39:39;;;;;;;9.17;8.17;;;;;;;-150.27;100.00;61272.81;5045134;29;20034;-71
2023/04/10 04:42:11;;;;;;;9.77;8.53;;;;;;;-150.27;100.00;61272.81;5037685;29;20038;-71
2023/04/10 04:44:42;;;;;;;9.57;8.57;;;;;;;-150.27;100.00;61272.81;5032211;29;20031;-71
2023/04/10 04:47:14;;;;;;;9.60;8.60;;;;;;;-150.27;100.00;61272.81;5030278;29;20045;-71
2023/04/10 04:49:45;;;;;;;10.60;8.60;;;;;;;-150.27;100.00;61272.81;5037975;29;20065;-71
2023/04/10 04:52:16;;;;;;;11.80;9.40;;;;;;;-150.27;100.00;61272.81;5027312;29;20034;-71
2023/04/10 04:54:47;;;;;;;10.00;9.00;;;;;;;-150.27;100.00;61272.81;5035816;29;20636;-71
2023/04/10 04:57:19;;;;;;;11.50;9.13;;;;;;;-150.27;100.00;61272.81;5027775;29;20040;-71
2023/04/10 04:59:50;;;;;;;13.10;9.80;;;;;;;-150.27;100.00;61272.81;5032416;29;20042;-70
2023/04/10 05:02:21;;;;;;;9.47;8.47;;;;;;;-150.27;100.00;61272.81;5037043;29;20029;-71
2023/04/10 05:04:53;;;;;;;10.83;8.97;;;;;;;-150.27;100.00;61272.81;5038016;29;20055;-71
2023/04/10 05:07:24;;;;;;;11.43;8.57;;;;;;;-150.27;100.00;61272.81;5037447;29;20065;-71
2023/04/10 05:09:55;;;;;;;11.70;8.77;;;;;;;-150.27;100.00;61272.81;5034585;29;20034;-71
2023/04/10 05:12:26;;;;;;;9.23;7.97;;;;;;;-150.27;100.00;61272.81;5029695;29;20038;-70
2023/04/10 05:14:58;;;;;;;11.07;8.83;;;;;;;-150.27;100.00;61272.81;5023901;29;20034;-71
2023/04/10 05:17:29;;;;;;;11.13;8.47;;;;;;;-150.27;100.00;61272.81;5028855;29;20065;-71
2023/04/10 05:20:01;;;;;;;10.10;8.90;;;;;;;-150.27;100.00;61272.81;5033495;29;20041;-71
2023/04/10 05:22:32;;;;;;;11.47;10.10;;;;;;;-150.27;100.00;61272.81;5037531;29;20034;-71
2023/04/10 05:25:04;;;;;;;11.93;9.80;;;;;;;-150.27;100.00;61272.81;5033791;29;20044;-71
2023/04/10 05:27:35;;;;;;;11.90;9.00;;;;;;;-150.27;100.00;61272.81;5036739;29;20053;-71
2023/04/10 05:30:07;;;;;;;11.57;9.17;;;;;;;-150.27;100.00;61272.81;5035553;29;20525;-71
2023/04/10 05:32:39;;;;;;;10.23;7.87;;;;;;;-150.27;100.00;61272.81;5037840;29;20041;-71
2023/04/10 05:35:10;;;;;;;10.13;9.10;;;;;;;-150.27;100.00;61272.81;5036469;29;20045;-71
2023/04/10 05:37:41;;;;;;;10.87;8.70;;;;;;;-150.27;100.00;61272.81;5023572;29;20034;-71
2023/04/10 05:40:13;;;;;;;9.90;8.87;;;;;;;-150.27;100.00;61272.81;5034223;29;20383;-71
2023/04/10 05:42:44;;;;;;;9.17;8.13;;;;;;;-150.27;100.00;61272.81;5030998;29;20040;-70
2023/04/10 05:45:15;;;;;;;9.90;7.53;;;;;;;-150.27;100.00;61272.81;5035916;29;20080;-69
2023/04/10 05:47:47;;;;;;;9.03;7.80;;;;;;;-150.27;100.00;61272.81;5037085;29;20125;-70
2023/04/10 05:50:18;;;;;;;11.40;8.40;;;;;;;-150.27;100.00;61272.81;5036363;29;20034;-70
2023/04/10 05:52:50;;;;;;;9.33;8.27;;;;;;;-150.27;100.00;61272.81;5036680;29;20501;-71
2023/04/10 05:55:21;;;;;;;9.97;8.97;;;;;;;-150.27;100.00;61272.81;5036460;29;20414;-69
2023/04/10 05:57:53;;;;;;;10.27;7.73;;;;;;;-150.27;100.00;61272.81;5035863;29;20037;-71
2023/04/10 06:00:24;;;;;;;8.90;7.67;;;;;;;-150.27;100.00;61272.81;5035316;29;20038;-71
2023/04/10 06:02:55;;;;;;;10.37;7.93;;;;;;;-150.27;100.00;61272.81;5036632;29;20455;-71
2023/04/10 06:05:27;;;;;;;9.33;7.83;;;;;;;-150.27;100.00;61272.81;5034573;29;20076;-70
2023/04/10 06:07:58;;;;;;;10.13;7.60;;;;;;;-150.27;100.00;61272.81;5035511;29;20053;-72
2023/04/10 06:10:29;;;;;;;9.70;7.40;;;;;;;-150.27;100.00;61272.81;5035901;29;20038;-70
2023/04/10 06:13:01;;;;;;;10.03;8.73;;;;;;;-150.27;100.00;61272.81;5034371;29;20050;-70
2023/04/10 06:15:32;;;;;;;9.60;7.13;;;;;;;-150.27;100.00;61272.81;5034904;29;20481;-69
2023/04/10 06:18:03;;;;;;;11.30;7.53;;;;;;;-150.27;100.00;61272.81;5034580;29;20079;-70
2023/04/10 06:20:35;;;;;;;8.53;7.63;;;;;;;-150.27;100.00;61272.81;5036032;29;20037;-70
2023/04/10 06:23:06;;;;;;;10.23;7.93;;;;;;;-150.27;100.00;61272.81;5035877;29;20089;-71
2023/04/10 06:25:37;;;;;;;9.17;7.67;;;;;;;-150.27;100.00;61272.81;5035254;29;20116;-71
2023/04/10 06:28:09;;;;;;;9.30;7.57;;;;;;;-150.27;100.00;61272.81;5035333;29;20120;-71
2023/04/10 06:30:40;;;;;;;7.40;6.50;;;;;;;-150.27;100.00;61272.81;5035435;29;20037;-71
2023/04/10 06:33:11;;;;;;;9.47;7.93;;;;;;;-150.27;100.00;61272.81;5035332;29;20111;-71
2023/04/10 06:35:42;;;;;;;9.47;7.70;;;;;;;-150.27;100.00;61272.81;5035483;29;20030;-70
2023/04/10 06:38:14;;;;;;;8.30;7.30;;;;;;;-150.27;100.00;61272.81;5035314;29;20082;-69
2023/04/10 06:40:46;;;;;;;10.13;7.23;;;;;;;-150.27;100.00;61272.81;5035383;29;20037;-70
2023/04/10 06:43:17;;;;;;;8.63;7.53;;;;;;;-150.27;100.00;61272.81;5027218;29;20062;-70
2023/04/10 06:45:48;;;;;;;7.97;6.90;;;;;;;-150.27;100.00;61272.81;5017513;29;20067;-71
2023/04/10 06:48:20;;;;;;;8.83;7.07;;;;;;;-150.27;100.00;61272.81;5034994;29;20042;-70
2023/04/10 06:50:51;;;;;;;8.90;7.20;;;;;;;-150.27;100.00;61272.81;5034104;29;20038;-70
2023/04/10 06:53:22;;;;;;;8.17;6.83;;;;;;;-150.27;100.00;61272.81;5022818;29;20034;-70
2023/04/10 06:55:53;;;;;;;8.50;7.30;;;;;;;-150.27;100.00;61272.81;5035093;29;20026;-70
2023/04/10 06:58:25;;;;;;;10.37;7.40;;;;;;;-150.27;100.00;61272.81;5033783;29;20074;-71
2023/04/10 07:00:57;;;;;;;9.53;7.07;;;;;;;-150.27;100.00;61272.81;5035076;29;20086;-70
2023/04/10 07:03:31;;;;;;;8.57;7.17;;;;;;;-150.27;100.00;61272.81;5017342;29;20026;-70
2023/04/10 07:06:02;;;;;;;9.20;7.67;;;;;;;-150.27;100.00;61272.81;5014993;29;20470;-70
2023/04/10 07:08:33;;;;;;;7.60;6.60;;;;;;;-150.27;100.00;61272.81;5012465;29;20038;-70
2023/04/10 07:11:05;;;;;;;8.93;7.00;;;;;;;-150.27;100.00;61272.81;5011171;29;20034;-70
2023/04/10 07:13:38;;;;;;;8.80;7.37;;;;;;;-150.27;100.00;61272.81;5033928;29;20058;-71
2023/04/10 07:16:10;;;;;;;8.00;6.60;;;;;;;-150.27;100.00;61272.81;5033461;29;20702;-70
2023/04/10 07:18:41;;;;;;;7.87;6.70;;;;;;;-150.27;100.00;61272.81;5022837;29;20048;-70
2023/04/10 07:21:12;;;;;;;7.90;6.60;;;;;;;-150.27;100.00;61272.81;5033785;29;20093;-71
2023/04/10 07:23:45;;;;;;;8.70;7.80;;;;;;;-150.27;100.00;61272.81;5033789;29;20050;-70
2023/04/10 07:26:16;;;;;;;10.50;7.23;;;;;;;-150.27;100.00;61272.81;5032967;29;20486;-70
2023/04/10 07:28:47;;;;;;;7.70;6.80;;;;;;;-150.27;100.00;61272.81;5033565;29;20034;-70
2023/04/10 07:31:18;;;;;;;9.87;7.47;;;;;;;-150.27;100.00;61272.81;5034425;29;20492;-70
2023/04/10 07:33:50;;;;;;;8.27;6.93;;;;;;;-150.27;100.00;61272.81;5034327;29;20022;-71
2023/04/10 07:36:21;;;;;;;11.17;7.30;;;;;;;-150.27;100.00;61272.81;5032578;29;20106;-71
2023/04/10 07:38:54;;;;;;;7.60;6.47;;;;;;;-150.27;100.00;61272.81;5031631;29;20042;-71
2023/04/10 07:41:25;;;;;;;7.87;6.40;;;;;;;-150.27;100.00;61272.81;5033983;29;20033;-68
2023/04/10 07:43:56;;;;;;;8.80;6.97;;;;;;;-150.27;100.00;61272.81;5033550;29;20079;-69
2023/04/10 07:46:27;;;;;;;8.43;6.03;;;;;;;-150.27;100.00;61272.81;5034680;29;20094;-71
2023/04/10 07:48:59;;;;;;;7.00;5.77;;;;;;;-150.27;100.00;61272.81;5034421;29;20050;-71
2023/04/10 07:51:30;;;;;;;11.30;6.40;;;;;;;-150.27;100.00;61272.81;5022022;29;20694;-70
2023/04/10 07:54:02;;;;;;;7.27;5.97;;;;;;;-150.27;100.00;61272.81;5032755;29;20369;-71
2023/04/10 07:56:34;;;;;;;6.70;5.80;;;;;;;-150.27;100.00;61272.81;5034575;29;20118;-70
2023/04/10 07:59:05;;;;;;;6.60;5.70;;;;;;;-150.27;100.00;61272.81;5030773;29;20138;-70
2023/04/10 08:01:36;;;;;;;8.87;6.73;;;;;;;-150.27;100.00;61272.81;5032657;29;20029;-71
2023/04/10 08:04:08;;;;;;;7.10;6.20;;;;;;;-150.27;100.00;61272.81;5033960;29;20041;-71
2023/04/10 08:06:39;;;;;;;7.80;6.13;;;;;;;-150.27;100.00;61272.81;5034074;29;20143;-69
2023/04/10 08:09:10;;;;;;;7.57;6.37;;;;;;;-150.27;100.00;61272.81;5026869;29;20046;-70
2023/04/10 08:11:42;;;;;;;9.10;6.00;;;;;;;-150.27;100.00;61272.81;5034671;29;20026;-71
2023/04/10 08:14:13;;;;;;;6.70;5.83;;;;;;;-150.27;100.00;61272.81;5032592;29;20151;-71
2023/04/10 08:16:44;;;;;;;7.23;6.20;;;;;;;-150.27;100.00;61272.81;5034488;29;20041;-71
2023/04/10 08:19:16;;;;;;;6.63;5.87;;;;;;;-150.27;100.00;61272.81;5017380;29;20034;-71
2023/04/10 08:21:47;;;;;;;8.40;5.87;;;;;;;-150.27;100.00;61272.81;5034101;29;20585;-72
2023/04/10 08:24:21;;;;;;;8.93;6.00;;;;;;;-150.27;100.00;61272.81;5034181;29;20053;-70
2023/04/10 08:26:52;;;;;;;6.65;5.50;;;;;;;-150.27;100.00;61272.81;5034410;29;20038;-71
2023/04/10 08:29:23;;;;;;;7.27;5.97;;;;;;;-150.27;100.00;61272.81;5033440;29;20036;-71
2023/04/10 08:31:56;;;;;;;7.17;6.13;;;;;;;-150.27;100.00;61272.81;5033818;29;20079;-71
2023/04/10 08:34:27;;;;;;;24.83;7.63;;;;;;;-150.27;100.00;61272.81;5034010;29;20045;-71
2023/04/10 08:36:59;;;;;;;6.50;5.73;;;;;;;-150.27;100.00;61272.81;5032660;29;20045;-72
2023/04/10 08:39:30;;;;;;;5.73;5.13;;;;;;;-150.27;100.00;61272.81;5033523;29;20034;-70
2023/04/10 08:42:02;;;;;;;6.77;6.07;;;;;;;-150.27;100.00;61272.81;5029392;29;20038;-70
2023/04/10 08:44:35;;;;;;;9.30;6.30;;;;;;;-150.27;100.00;61272.81;5032598;29;20082;-71
2023/04/10 08:47:08;;;;;;;7.00;5.83;;;;;;;-150.27;100.00;61272.81;5002767;29;20050;-73
2023/04/10 08:49:54;;;;;;;6.63;5.27;;;;;;;-150.27;100.00;61272.81;5034755;29;20101;-72
2023/04/10 08:52:30;;;;;;;6.43;5.60;;;;;;;-150.27;100.00;61272.81;5037714;29;20558;-73
2023/04/10 08:55:06;;;;;;;8.03;6.63;;;;;;;-150.27;100.00;61272.81;5037351;29;20026;-72
2023/04/10 08:57:39;;;;;;;8.73;5.70;;;;;;;-150.27;100.00;61272.81;5037669;29;20470;-72
2023/04/10 09:00:11;;;;;;;7.40;5.93;;;;;;;-150.27;100.00;61272.81;5035699;29;20030;-72
2023/04/10 09:02:42;;;;;;;6.37;5.73;;;;;;;-150.27;100.00;61272.81;5037697;29;20053;-72
2023/04/10 09:05:14;;;;;;;8.93;5.60;;;;;;;-150.27;100.00;61272.81;5036448;29;20026;-72
2023/04/10 09:07:45;;;;;;;5.97;5.30;;;;;;;-150.27;100.00;61272.81;5037392;29;21062;-71
2023/04/10 09:10:16;;;;;;;7.47;5.73;;;;;;;-150.27;100.00;61272.81;5036719;29;20470;-73
2023/04/10 09:12:48;;;;;;;7.57;5.90;;;;;;;-150.27;100.00;61272.81;5019875;29;20058;-71
2023/04/10 09:15:19;;;;;;;6.43;5.83;;;;;;;-150.27;100.00;61272.81;5033726;29;20136;-72
2023/04/10 09:17:59;;;;;;;7.33;6.30;;;;;;;-150.27;100.00;61272.81;5029502;29;20117;-70
2023/04/10 09:20:31;;;;;;;6.83;6.10;;;;;;;-150.27;100.00;61272.81;5036238;29;20030;-72
2023/04/10 09:23:21;;;;;;;7.27;6.17;;;;;;;-150.27;100.00;61272.81;5036576;29;20036;-72
2023/04/10 09:25:52;;;;;;;6.23;5.03;;;;;;;-150.27;100.00;61272.81;5035763;29;20029;-75
2023/04/10 09:28:23;;;;;;;8.07;5.63;;;;;;;-150.27;100.00;61272.81;5035579;29;20034;-73
2023/04/10 09:30:55;;;;;;;6.73;6.03;;;;;;;-150.27;100.00;61272.81;5037452;29;20034;-72
2023/04/10 09:33:26;;;;;;;6.97;5.37;;;;;;;-150.27;100.00;61272.81;5036309;29;20042;-71
2023/04/10 09:35:59;;;;;;;6.37;5.47;;;;;;;-150.27;100.00;61272.81;5037024;29;20037;-71
2023/04/10 09:38:30;;;;;;;5.83;5.10;;;;;;;-150.27;100.00;61272.81;5027721;29;20628;-71
2023/04/10 09:41:07;;;;;;;8.80;5.47;;;;;;;-150.27;100.00;61272.81;5034447;29;20030;-71
2023/04/10 09:43:38;;;;;;;6.93;5.17;;;;;;;-150.27;100.00;61272.81;5037298;29;20057;-71
2023/04/10 09:46:10;;;;;;;7.13;4.87;;;;;;;-150.27;100.00;61272.81;5036379;29;20076;-70
2023/04/10 09:48:54;;;;;;;5.63;5.10;;;;;;;-150.27;100.00;61272.81;5037858;29;20132;-70
2023/04/10 09:51:30;;;;;;;6.23;5.20;;;;;;;-150.27;100.00;61272.81;5036756;29;20046;-70
2023/04/10 09:54:03;;;;;;;6.23;5.07;;;;;;;-150.27;100.00;61272.81;5027514;29;20103;-71
2023/04/10 09:56:37;;;;;;;6.67;5.13;;;;;;;-150.27;100.00;61272.81;5035852;29;20029;-71
2023/04/10 09:59:09;;;;;;;6.13;5.10;;;;;;;-150.27;100.00;61272.81;5036496;29;20112;-71
2023/04/10 10:01:41;;;;;;;8.80;5.13;;;;;;;-150.27;100.00;61272.81;5036600;29;20026;-71
2023/04/10 10:04:16;;;;;;;9.07;5.23;;;;;;;-150.27;100.00;61272.81;5029725;29;20033;-71
2023/04/10 10:06:48;;;;;;;6.30;5.07;;;;;;;-150.27;100.00;61272.81;5027738;29;20022;-72
2023/04/10 10:09:19;;;;;;;7.70;5.20;;;;;;;-150.27;100.00;61272.81;5028609;29;20111;-71
2023/04/10 10:11:51;;;;;;;6.53;4.83;;;;;;;-150.27;100.00;61272.81;5027771;29;20578;-76
2023/04/10 10:14:26;;;;;;;5.93;5.03;;;;;;;-150.27;100.00;61272.81;5028402;29;20054;-75
2023/04/10 10:17:04;;;;;;;4.70;4.20;;;;;;;-150.27;100.00;61272.81;5033250;29;20124;-74
2023/04/10 10:19:50;;;;;;;6.10;4.70;;;;;;;-150.27;100.00;61272.81;5030499;29;20038;-76
2023/04/10 10:22:24;;;;;;;5.37;4.13;;;;;;;-150.27;100.00;61272.81;5036989;29;20073;-75
2023/04/10 10:24:58;;;;;;;5.23;4.73;;;;;;;-150.27;100.00;61272.81;5037604;29;20484;-70
2023/04/10 10:27:31;;;;;;;5.63;4.50;;;;;;;-150.27;100.00;61272.81;5037384;29;20050;-74
2023/04/10 10:30:05;;;;;;;3.97;3.40;;;;;;;-150.27;100.00;61272.81;5036264;29;20042;-70
2023/04/10 10:32:36;;;;;;;5.50;3.53;;;;;;;-150.27;100.00;61272.81;5014775;29;20038;-70
2023/04/10 10:35:08;;;;;;;5.57;4.23;;;;;;;-150.27;100.00;61272.81;5032736;29;20113;-70
2023/04/10 10:37:41;;;;;;;5.07;3.67;;;;;;;-150.27;100.00;61272.81;5039205;29;20026;-70
2023/04/10 10:40:24;;;;;;;6.23;4.17;;;;;;;-150.27;100.00;61272.81;5037516;29;20049;-70
2023/04/10 10:43:07;;;;;;;4.63;3.57;;;;;;;-150.27;100.00;61272.81;5036355;29;20079;-71
2023/04/10 10:46:01;;;;;;;7.53;4.40;;;;;;;-150.27;100.00;61272.81;5021122;29;20034;-70
2023/04/10 10:48:33;;;;;;;3.97;3.57;;;;;;;-150.27;100.00;61272.81;5029520;29;20042;-72
2023/04/10 10:51:04;;;;;;;4.30;3.57;;;;;;;-150.27;100.00;61272.81;5032077;29;20086;-75
2023/04/10 10:53:35;;;;;;;4.50;3.47;;;;;;;-150.27;100.00;61272.81;5031821;29;20169;-78
2023/04/10 10:56:19;;;;;;;4.77;3.70;;;;;;;-150.27;100.00;61272.81;5035769;29;20058;-76
2023/04/10 10:59:00;;;;;;;5.70;3.53;;;;;;;-150.27;100.00;61272.81;5034737;29;20030;-77
2023/04/10 11:01:32;;;;;;;4.97;4.30;;;;;;;-150.27;100.00;61272.81;5018645;29;20358;-74
2023/04/10 11:04:42;;;;;;;5.20;4.10;;;;;;;-150.27;100.00;61272.81;5035778;29;20046;-73
2023/04/10 11:07:15;;;;;;;4.53;3.60;;;;;;;-150.27;100.00;61272.81;5031896;29;20129;-77
2023/04/10 11:09:47;;;;;;;3.90;3.20;;;;;;;-150.27;100.00;61272.81;5029921;29;20041;-74
2023/04/10 11:12:21;;;;;;;6.73;3.60;;;;;;;-150.27;100.00;61272.81;5028665;29;20137;-73
2023/04/10 11:14:57;;;;;;;;;;;;;;;-150.27;100.00;61272.81;5022516;29;20654;-71
2023/04/10 11:17:49;;;;;;;4.07;3.50;;;;;;;-150.27;100.00;61272.81;5017616;29;20328;-73
2023/04/10 11:20:24;;;;;;;4.27;3.00;;;;;;;-150.27;100.00;61272.81;5035534;29;20075;-77
2023/04/10 11:23:11;;;;;;;7.53;3.87;;;;;;;-150.27;100.00;61272.81;5028367;29;20104;-74
2023/04/10 11:25:47;;;;;;;4.27;3.17;;;;;;;-150.27;100.00;61272.81;5035033;29;20030;-79
2023/04/10 11:28:34;;;;;;;3.33;2.90;;;;;;;-150.27;100.00;61272.81;5028344;29;20038;-80
2023/04/10 11:31:21;;;;;;;5.20;2.90;;;;;;;-150.27;100.00;61272.81;5027715;29;20037;-74
2023/04/10 11:33:59;;;;;;;4.03;3.10;;;;;;;-150.27;100.00;61272.81;5017002;29;20038;-78